Time;durP1;ratioP1;P1;durP2;ratioP2;P2;SDS_P1;SDS_P2;PMS_P1;PMS_P2;Temp;Humidity;BMP_temperature;BMP_pressure;BME280_temperature;BME280_humidity;BME280_pressure;Samples;Min_cycle;Max_cycle;Signal;HPM_P1;HPM_P2
2024/01/26 00:01:13;;;;;;;12.52;7.38;;;;;;;-146.27;94.61;39601.94;5067800;28;20036;-71
2024/01/26 00:03:39;;;;;;;11.55;7.78;;;;;;;-146.27;94.75;39530.41;5069497;28;20016;-70
2024/01/26 00:06:04;;;;;;;15.45;8.32;;;;;;;-146.27;93.79;39510.53;5050855;28;20036;-70
2024/01/26 00:08:30;;;;;;;16.13;8.63;;;;;;;-146.27;94.49;39629.75;5049045;28;20425;-69
2024/01/26 00:10:56;;;;;;;13.60;8.68;;;;;;;-146.27;95.22;39558.22;5049359;28;20025;-70
2024/01/26 00:13:22;;;;;;;15.38;8.73;;;;;;;-146.27;95.40;39562.19;5056027;28;20048;-70
2024/01/26 00:15:47;;;;;;;14.00;9.63;;;;;;;-146.27;94.59;39504.56;5066988;28;20031;-70
2024/01/26 00:18:12;;;;;;;14.88;9.85;;;;;;;-146.27;94.72;39590.00;5063897;28;20062;-72
2024/01/26 00:20:38;;;;;;;15.90;9.27;;;;;;;-146.27;94.46;39625.78;5069056;28;20082;-71
2024/01/26 00:23:03;;;;;;;16.92;9.95;;;;;;;-146.27;94.00;39538.34;5065948;28;20383;-71
2024/01/26 00:25:28;;;;;;;16.90;8.30;;;;;;;-146.27;94.56;39526.41;5057680;28;20040;-71
2024/01/26 00:27:54;;;;;;;16.25;8.85;;;;;;;-146.27;94.48;39546.28;5053064;28;20139;-70
2024/01/26 00:30:19;;;;;;;14.38;8.35;;;;;;;-146.27;94.29;39613.88;5065365;28;20496;-71
2024/01/26 00:32:44;;;;;;;13.98;8.65;;;;;;;-146.27;94.05;39558.22;5069336;28;20028;-71
2024/01/26 00:35:10;;;;;;;14.68;8.63;;;;;;;-146.27;94.76;39522.44;5068253;28;20025;-70
2024/01/26 00:37:35;;;;;;;14.77;8.05;;;;;;;-146.27;95.23;39502.56;5062264;28;20028;-71
2024/01/26 00:40:00;;;;;;;13.15;8.20;;;;;;;-146.27;96.17;39536.34;5064676;28;20036;-71
2024/01/26 00:42:26;;;;;;;16.73;8.50;;;;;;;-146.27;95.07;39498.59;5059399;28;20034;-72
2024/01/26 00:44:51;;;;;;;14.00;8.45;;;;;;;-146.27;94.20;39530.41;5060968;28;20025;-71
2024/01/26 00:47:16;;;;;;;15.07;8.18;;;;;;;-146.27;94.58;39552.25;5062418;28;20032;-71
2024/01/26 00:49:42;;;;;;;13.55;8.10;;;;;;;-146.27;95.81;39470.78;5071148;28;20111;-70
2024/01/26 00:52:07;;;;;;;16.65;8.02;;;;;;;-146.27;95.10;39419.09;5065649;28;20013;-71
2024/01/26 00:54:33;;;;;;;17.48;8.35;;;;;;;-146.27;95.07;39448.91;5065823;28;20028;-72
2024/01/26 00:56:58;;;;;;;13.05;7.57;;;;;;;-146.27;95.01;39470.78;5065768;28;20025;-71
2024/01/26 00:59:23;;;;;;;13.05;7.65;;;;;;;-146.27;94.61;39395.25;5067060;28;20025;-72
2024/01/26 01:01:50;;;;;;;15.15;7.65;;;;;;;-146.27;94.24;39478.72;5061950;28;20031;-71
2024/01/26 01:04:15;;;;;;;16.42;8.40;;;;;;;-146.27;95.98;39438.97;5070685;28;20024;-70
2024/01/26 01:06:40;;;;;;;12.98;7.90;;;;;;;-146.27;94.87;39387.31;5064568;28;20119;-71
2024/01/26 01:09:06;;;;;;;12.43;7.63;;;;;;;-146.27;94.29;39399.25;5065343;28;20095;-71
2024/01/26 01:11:31;;;;;;;10.98;7.55;;;;;;;-146.27;95.06;39395.25;5052054;28;20017;-71
2024/01/26 01:13:56;;;;;;;13.05;6.93;;;;;;;-146.27;94.60;39435.00;5052155;28;20022;-71
2024/01/26 01:16:22;;;;;;;9.90;6.93;;;;;;;-146.27;95.38;39423.09;5054485;28;20039;-70
2024/01/26 01:18:48;;;;;;;11.90;6.28;;;;;;;-146.27;95.86;39450.91;5063775;28;20024;-71
2024/01/26 01:21:13;;;;;;;10.65;6.15;;;;;;;-146.27;95.21;39343.59;5069184;28;20024;-71
2024/01/26 01:23:39;;;;;;;11.75;6.45;;;;;;;-146.27;94.75;39419.09;5052576;28;20024;-69
2024/01/26 01:26:04;;;;;;;12.07;6.47;;;;;;;-146.27;94.59;39403.22;5060830;28;20082;-72
2024/01/26 01:28:29;;;;;;;14.80;6.85;;;;;;;-146.27;94.96;39403.22;5055793;28;20041;-71
2024/01/26 01:30:56;;;;;;;11.93;5.50;;;;;;;-146.27;94.76;39347.56;5066511;28;20448;-71
2024/01/26 01:33:21;;;;;;;11.10;5.95;;;;;;;-146.27;94.66;39347.56;5051080;28;20106;-71
2024/01/26 01:35:47;;;;;;;10.55;5.43;;;;;;;-146.27;95.15;39345.59;5070734;28;20028;-69
2024/01/26 01:38:12;;;;;;;12.93;5.85;;;;;;;-146.27;94.95;39427.06;5070743;28;20378;-72
2024/01/26 01:40:39;;;;;;;12.60;6.43;;;;;;;-146.27;94.53;39355.53;5071816;28;20095;-70
2024/01/26 01:43:04;;;;;;;19.95;6.63;;;;;;;-146.27;95.56;39371.41;5059707;28;20061;-71
2024/01/26 01:45:30;;;;;;;8.77;6.78;;;;;;;-146.27;94.49;39423.09;5064211;28;20032;-71
2024/01/26 01:47:55;;;;;;;12.15;5.80;;;;;;;-146.27;94.54;39365.47;5059638;28;20142;-71
2024/01/26 01:50:21;;;;;;;8.43;6.10;;;;;;;-146.27;93.90;39387.31;5069129;28;20025;-70
2024/01/26 01:52:48;;;;;;;14.15;6.32;;;;;;;-146.27;94.57;39419.09;5066438;28;20048;-71
2024/01/26 01:55:15;;;;;;;10.60;6.45;;;;;;;-146.27;95.46;39367.44;5061237;28;20025;-72
2024/01/26 01:57:44;;;;;;;10.82;6.40;;;;;;;-146.27;94.58;39405.19;5051261;28;20029;-71
2024/01/26 02:00:16;;;;;;;15.63;7.00;;;;;;;-146.27;94.89;39379.38;5061615;28;20036;-70
2024/01/26 02:02:44;;;;;;;11.27;6.57;;;;;;;-146.27;94.43;39361.47;5066232;28;20383;-71
2024/01/26 02:05:09;;;;;;;10.57;6.22;;;;;;;-146.27;95.15;39355.53;5061821;28;20039;-71
2024/01/26 02:07:34;;;;;;;8.05;5.85;;;;;;;-146.27;93.96;39395.25;5061713;28;20024;-70
2024/01/26 02:10:00;;;;;;;10.70;7.00;;;;;;;-146.27;95.48;39415.13;5069349;28;20033;-70
2024/01/26 02:12:25;;;;;;;10.10;5.95;;;;;;;-146.27;94.51;39375.41;5064920;28;20021;-72
2024/01/26 02:14:52;;;;;;;9.55;6.47;;;;;;;-146.27;93.46;39466.81;5056306;28;20025;-71
2024/01/26 02:17:17;;;;;;;8.30;6.15;;;;;;;-146.27;93.57;39446.94;5068870;28;20086;-70
2024/01/26 02:19:43;;;;;;;11.27;6.65;;;;;;;-146.27;94.11;39387.31;5070124;28;20025;-70
2024/01/26 02:22:08;;;;;;;9.50;6.57;;;;;;;-146.27;93.34;39427.06;5070967;28;20032;-70
2024/01/26 02:24:33;;;;;;;15.63;7.45;;;;;;;-146.27;93.91;39450.91;5064680;28;20024;-70
2024/01/26 02:26:59;;;;;;;8.90;6.70;;;;;;;-146.27;94.60;39454.88;5062588;28;20028;-72
2024/01/26 02:29:24;;;;;;;14.80;7.15;;;;;;;-146.27;94.14;39373.41;5069764;28;20127;-71
2024/01/26 02:31:49;;;;;;;8.85;6.38;;;;;;;-146.27;94.70;39438.97;5070161;28;20028;-71
2024/01/26 02:34:15;;;;;;;13.68;7.15;;;;;;;-146.27;94.11;39393.28;5069461;28;20498;-71
2024/01/26 02:36:40;;;;;;;10.48;7.20;;;;;;;-146.27;94.51;39438.97;5070379;28;20071;-72
2024/01/26 02:39:05;;;;;;;14.07;7.35;;;;;;;-146.27;95.02;39419.09;5065308;28;20029;-71
2024/01/26 02:41:32;;;;;;;13.38;7.30;;;;;;;-146.27;94.23;39425.06;5064914;28;20078;-71
2024/01/26 02:43:58;;;;;;;10.57;7.95;;;;;;;-146.27;95.18;39395.25;5067691;28;20032;-72
2024/01/26 02:46:23;;;;;;;18.10;10.27;;;;;;;-146.27;94.64;39450.91;5060150;28;20025;-71
2024/01/26 02:48:48;;;;;;;15.02;9.70;;;;;;;-146.27;95.47;39399.25;5063602;28;20024;-71
2024/01/26 02:51:14;;;;;;;16.02;10.27;;;;;;;-146.27;95.46;39339.63;5067577;28;20598;-71
2024/01/26 02:53:40;;;;;;;18.73;11.43;;;;;;;-146.27;94.72;39321.75;5067004;28;20028;-71
2024/01/26 02:56:07;;;;;;;15.68;10.00;;;;;;;-146.27;95.26;39375.41;5052105;28;20025;-72
2024/01/26 02:58:32;;;;;;;23.15;10.68;;;;;;;-146.27;95.37;39375.41;5058873;28;20504;-71
2024/01/26 03:00:57;;;;;;;18.75;10.40;;;;;;;-146.27;95.42;39367.44;5054493;28;20079;-70
2024/01/26 03:03:23;;;;;;;14.48;9.60;;;;;;;-146.27;95.50;39319.75;5053675;28;20487;-71
2024/01/26 03:05:49;;;;;;;13.63;9.02;;;;;;;-146.27;95.23;39339.63;5067897;28;20271;-71
2024/01/26 03:08:14;;;;;;;17.75;9.90;;;;;;;-146.27;94.97;39351.53;5050458;28;20047;-71
2024/01/26 03:10:39;;;;;;;15.05;9.90;;;;;;;-146.27;95.10;39399.25;5058838;28;20094;-71
2024/01/26 03:13:05;;;;;;;17.25;9.75;;;;;;;-146.27;96.16;39327.69;5059387;28;20025;-71
2024/01/26 03:15:30;;;;;;;17.83;10.15;;;;;;;-146.27;95.45;39307.81;5062820;28;20024;-71
2024/01/26 03:17:55;;;;;;;17.08;10.68;;;;;;;-146.27;95.71;39307.81;5064836;28;20480;-71
2024/01/26 03:20:21;;;;;;;13.82;10.18;;;;;;;-146.27;95.29;39252.19;5066766;28;20493;-71
2024/01/26 03:22:47;;;;;;;17.08;10.27;;;;;;;-146.27;95.13;39280.00;5054161;28;20122;-71
2024/01/26 03:25:12;;;;;;;21.95;10.85;;;;;;;-146.27;95.90;39287.97;5050140;28;20029;-70
2024/01/26 03:27:38;;;;;;;16.58;10.70;;;;;;;-146.27;94.94;39216.41;5067495;28;20048;-71
2024/01/26 03:30:04;;;;;;;22.65;11.75;;;;;;;-146.27;94.67;39252.19;5055057;28;20025;-71
2024/01/26 03:32:29;;;;;;;15.68;10.90;;;;;;;-146.27;94.76;39280.00;5061023;28;20057;-71
2024/01/26 03:34:55;;;;;;;20.25;12.82;;;;;;;-146.27;95.71;39256.16;5068784;28;20032;-71
2024/01/26 03:37:20;;;;;;;20.13;12.18;;;;;;;-146.27;96.17;39311.81;5066424;28;20028;-71
2024/01/26 03:39:45;;;;;;;23.38;12.98;;;;;;;-146.27;95.10;39180.66;5068066;28;20672;-70
2024/01/26 03:42:11;;;;;;;19.75;12.60;;;;;;;-146.27;94.73;39252.19;5063363;28;20487;-70
2024/01/26 03:44:38;;;;;;;19.80;11.88;;;;;;;-146.27;94.54;39299.88;5069426;28;20038;-71
2024/01/26 03:47:04;;;;;;;18.92;12.02;;;;;;;-146.27;95.39;39278.03;5061505;28;20407;-70
2024/01/26 03:49:29;;;;;;;18.30;12.40;;;;;;;-146.27;95.37;39230.34;5052543;28;20035;-71
2024/01/26 03:51:55;;;;;;;20.88;12.15;;;;;;;-146.27;94.39;39295.91;5063736;28;20481;-71
2024/01/26 03:54:20;;;;;;;20.83;12.15;;;;;;;-146.27;96.33;39309.81;5061208;28;20025;-71
2024/01/26 03:56:45;;;;;;;16.55;11.63;;;;;;;-146.27;96.14;39268.09;5053678;28;20372;-71
2024/01/26 03:59:11;;;;;;;21.85;12.00;;;;;;;-146.27;94.95;39303.84;5067260;28;20028;-71
2024/01/26 04:01:36;;;;;;;19.30;12.23;;;;;;;-146.27;95.55;39264.13;5068032;28;20052;-72
2024/01/26 04:04:02;;;;;;;20.80;12.82;;;;;;;-146.27;95.20;39315.78;5070738;28;20028;-71
2024/01/26 04:06:27;;;;;;;17.02;12.93;;;;;;;-146.27;95.56;39299.88;5060037;28;20492;-71
2024/01/26 04:08:54;;;;;;;24.17;12.02;;;;;;;-146.27;96.10;39280.00;5064979;28;20031;-71
2024/01/26 04:11:20;;;;;;;18.00;11.40;;;;;;;-146.27;95.65;39272.06;5053591;28;20017;-70
2024/01/26 04:13:45;;;;;;;17.70;11.30;;;;;;;-146.27;96.12;39303.84;5052854;28;20465;-70
2024/01/26 04:16:10;;;;;;;25.75;12.63;;;;;;;-146.27;96.12;39270.06;5060826;28;20146;-70
2024/01/26 04:18:36;;;;;;;20.27;11.63;;;;;;;-146.27;97.34;39228.34;5069094;28;20036;-71
2024/01/26 04:21:01;;;;;;;16.98;12.25;;;;;;;-146.27;97.13;39230.34;5069984;28;20151;-71
2024/01/26 04:23:26;;;;;;;16.10;12.18;;;;;;;-146.27;97.90;39200.53;5062748;28;20057;-70
2024/01/26 04:25:52;;;;;;;18.10;12.30;;;;;;;-146.27;98.37;39119.06;5056158;28;20032;-71
2024/01/26 04:28:17;;;;;;;18.88;11.90;;;;;;;-146.27;98.81;39172.69;5058156;28;20051;-71
2024/01/26 04:30:43;;;;;;;17.98;10.70;;;;;;;-146.27;100.00;39184.63;5065548;28;20074;-70
2024/01/26 04:33:09;;;;;;;27.13;14.57;;;;;;;-146.27;98.39;39069.38;5052682;28;20017;-71
2024/01/26 04:35:34;;;;;;;27.95;14.57;;;;;;;-146.27;98.80;39113.09;5061229;28;20081;-70
2024/01/26 04:38:00;;;;;;;20.88;14.10;;;;;;;-146.27;98.98;39144.88;5058323;28;20036;-70
2024/01/26 04:40:26;;;;;;;24.80;14.80;;;;;;;-146.27;98.85;39069.38;5059789;28;20039;-70
2024/01/26 04:42:51;;;;;;;21.85;13.20;;;;;;;-146.27;98.49;38989.91;5067726;28;20165;-71
2024/01/26 04:45:16;;;;;;;23.60;15.20;;;;;;;-146.27;98.64;39085.28;5064082;28;20037;-71
2024/01/26 04:47:42;;;;;;;19.70;13.68;;;;;;;-146.27;99.24;39037.59;5065436;28;20058;-69
2024/01/26 04:50:09;;;;;;;27.60;16.08;;;;;;;-146.27;99.53;39101.16;5069935;28;20115;-70
2024/01/26 04:52:34;;;;;;;25.67;15.68;;;;;;;-146.27;99.35;39041.56;5068424;28;20485;-70
2024/01/26 04:55:00;;;;;;;20.52;14.95;;;;;;;-146.27;98.44;38991.88;5070042;28;20115;-71
2024/01/26 04:57:25;;;;;;;22.45;15.50;;;;;;;-146.27;99.23;39073.34;5058430;28;20086;-70
2024/01/26 04:59:50;;;;;;;24.92;15.50;;;;;;;-146.27;99.56;39057.47;5051908;28;20025;-70
2024/01/26 05:02:16;;;;;;;21.90;15.73;;;;;;;-146.27;99.60;39021.69;5060944;28;20032;-71
2024/01/26 05:04:41;;;;;;;26.27;16.00;;;;;;;-146.27;98.26;38976.00;5072264;28;20024;-71
2024/01/26 05:07:07;;;;;;;26.52;16.75;;;;;;;-146.27;100.00;39029.63;5061701;28;20020;-70
2024/01/26 05:09:33;;;;;;;19.92;14.77;;;;;;;-146.27;99.43;38991.88;5058179;28;20485;-71
2024/01/26 05:11:58;;;;;;;22.35;15.27;;;;;;;-146.27;99.88;38974.00;5060702;28;20458;-71
2024/01/26 05:14:23;;;;;;;24.23;14.60;;;;;;;-146.27;100.00;39029.63;5070977;28;20040;-70
2024/01/26 05:16:49;;;;;;;21.83;14.05;;;;;;;-146.27;100.00;39017.72;5063518;28;20029;-71
2024/01/26 05:19:14;;;;;;;25.38;14.68;;;;;;;-146.27;100.00;39001.81;5067812;28;20079;-70
2024/01/26 05:21:40;;;;;;;25.70;14.35;;;;;;;-146.27;100.00;38966.06;5064712;28;20031;-70
2024/01/26 05:24:06;;;;;;;23.92;15.32;;;;;;;-146.27;100.00;39033.63;5063663;28;20050;-71
2024/01/26 05:26:31;;;;;;;23.48;15.07;;;;;;;-146.27;100.00;38966.06;5062956;28;20033;-70
2024/01/26 05:28:57;;;;;;;24.77;13.20;;;;;;;-146.27;100.00;39035.59;5069782;28;20068;-70
2024/01/26 05:31:22;;;;;;;24.50;15.27;;;;;;;-146.27;100.00;38942.22;5058283;28;20040;-72
2024/01/26 05:33:47;;;;;;;24.77;15.25;;;;;;;-146.27;100.00;38872.66;5051406;28;20084;-70
2024/01/26 05:36:13;;;;;;;21.00;14.13;;;;;;;-146.27;100.00;38924.31;5051645;28;20017;-71
2024/01/26 05:38:38;;;;;;;24.13;15.65;;;;;;;-146.27;100.00;38846.84;5051886;28;20071;-70
2024/01/26 05:41:04;;;;;;;28.33;16.40;;;;;;;-146.27;100.00;38870.69;5062724;28;20476;-71
2024/01/26 05:43:29;;;;;;;25.15;15.00;;;;;;;-146.27;100.00;38886.56;5069994;28;20103;-69
2024/01/26 05:45:54;;;;;;;30.13;16.10;;;;;;;-146.27;100.00;38858.75;5057331;28;20052;-72
2024/01/26 05:48:20;;;;;;;22.65;15.77;;;;;;;-146.27;100.00;38858.75;5051384;28;20017;-70
2024/01/26 05:50:45;;;;;;;23.30;15.63;;;;;;;-146.27;100.00;38886.56;5063904;28;20036;-71
2024/01/26 05:53:11;;;;;;;22.95;15.23;;;;;;;-146.27;100.00;38823.00;5057848;28;20063;-70
2024/01/26 05:55:36;;;;;;;21.48;15.15;;;;;;;-146.27;100.00;38846.84;5070396;28;20273;-71
2024/01/26 05:58:01;;;;;;;25.00;15.98;;;;;;;-146.27;100.00;38779.28;5070627;28;20024;-71
2024/01/26 06:00:27;;;;;;;23.23;15.80;;;;;;;-146.27;100.00;38783.25;5069206;28;20027;-71
2024/01/26 06:02:53;;;;;;;26.38;15.85;;;;;;;-146.27;100.00;38799.16;5053278;28;20025;-71
2024/01/26 06:05:18;;;;;;;23.75;14.80;;;;;;;-146.27;100.00;38815.03;5068954;28;20021;-71
2024/01/26 06:07:43;;;;;;;20.95;14.27;;;;;;;-146.27;100.00;38775.31;5065992;28;20043;-71
2024/01/26 06:10:09;;;;;;;22.13;14.98;;;;;;;-146.27;100.00;38773.31;5071271;28;20503;-72
2024/01/26 06:12:38;;;;;;;18.92;14.68;;;;;;;-146.27;100.00;38771.34;5066364;28;20024;-73
2024/01/26 06:15:03;;;;;;;21.05;13.82;;;;;;;-146.27;100.00;38823.00;5070872;28;20036;-71
2024/01/26 06:17:29;;;;;;;22.05;15.30;;;;;;;-146.27;100.00;38787.22;5055207;28;20036;-71
2024/01/26 06:19:54;;;;;;;21.48;14.43;;;;;;;-146.27;100.00;38890.56;5061410;28;20075;-71
2024/01/26 06:22:19;;;;;;;18.83;13.48;;;;;;;-146.27;100.00;38898.50;5064756;28;20024;-71
2024/01/26 06:24:45;;;;;;;21.75;14.15;;;;;;;-146.27;100.00;38838.88;5070563;28;20063;-71
2024/01/26 06:27:10;;;;;;;24.20;14.82;;;;;;;-146.27;100.00;38765.38;5059075;28;20055;-69
2024/01/26 06:29:36;;;;;;;20.38;14.93;;;;;;;-146.27;100.00;38783.25;5050698;28;20056;-70
2024/01/26 06:32:01;;;;;;;25.30;15.02;;;;;;;-146.27;100.00;38779.28;5051038;28;20481;-70
2024/01/26 06:34:26;;;;;;;24.55;15.27;;;;;;;-146.27;100.00;38783.25;5051261;28;20033;-71
2024/01/26 06:36:52;;;;;;;24.77;14.85;;;;;;;-146.27;100.00;38838.88;5052840;28;20477;-71
2024/01/26 06:39:17;;;;;;;27.48;16.25;;;;;;;-146.27;100.00;38779.28;5051303;28;20136;-71
2024/01/26 06:41:43;;;;;;;28.38;17.08;;;;;;;-146.27;100.00;38691.88;5063483;28;20057;-71
2024/01/26 06:44:09;;;;;;;28.05;18.27;;;;;;;-146.27;100.00;38757.44;5059635;28;20028;-70
2024/01/26 06:46:34;;;;;;;25.85;17.55;;;;;;;-146.27;100.00;38703.78;5053192;28;20480;-71
2024/01/26 06:49:01;;;;;;;24.42;15.95;;;;;;;-146.27;100.00;38759.41;5051062;28;20078;-71
2024/01/26 06:51:27;;;;;;;23.33;14.73;;;;;;;-146.27;100.00;38713.72;5058551;28;20055;-70
2024/01/26 06:53:52;;;;;;;21.83;13.05;;;;;;;-146.27;100.00;38662.06;5062791;28;20363;-69
2024/01/26 06:56:18;;;;;;;18.95;11.93;;;;;;;-146.27;100.00;38660.06;5070576;28;20055;-70
2024/01/26 06:58:45;;;;;;;18.55;10.90;;;;;;;-146.27;100.00;38683.91;5063459;28;20028;-71
2024/01/26 07:01:11;;;;;;;22.25;11.10;;;;;;;-146.27;100.00;38576.63;5060537;28;20476;-71
2024/01/26 07:03:36;;;;;;;15.05;9.23;;;;;;;-146.27;100.00;38711.72;5061979;28;20119;-72
2024/01/26 07:06:05;;;;;;;18.83;8.65;;;;;;;-146.27;100.00;38709.75;5083266;28;20523;-72
2024/01/26 07:08:36;;;;;;;19.85;9.55;;;;;;;-146.27;100.00;38586.56;5078113;28;20111;-72
2024/01/26 07:11:01;;;;;;;13.63;9.32;;;;;;;-146.27;100.00;38628.28;5068234;28;20024;-76
2024/01/26 07:13:26;;;;;;;19.10;9.52;;;;;;;-146.27;100.00;38560.72;5077416;28;20020;-72
2024/01/26 07:15:52;;;;;;;12.35;8.02;;;;;;;-146.27;99.81;38660.06;5068111;28;20028;-71
2024/01/26 07:18:17;;;;;;;10.02;7.82;;;;;;;-146.27;100.00;38747.50;5069208;28;20420;-71
2024/01/26 07:20:42;;;;;;;10.90;7.10;;;;;;;-146.27;100.00;38687.88;5068500;28;20070;-72
2024/01/26 07:23:08;;;;;;;13.55;7.28;;;;;;;-146.27;100.00;38703.78;5063972;28;20052;-72
2024/01/26 07:25:33;;;;;;;12.43;7.13;;;;;;;-146.27;99.17;38574.63;5064917;28;20107;-72
2024/01/26 07:27:58;;;;;;;16.45;6.90;;;;;;;-146.27;100.00;38747.50;5055620;28;20132;-73
2024/01/26 07:30:24;;;;;;;10.77;6.13;;;;;;;-146.27;100.00;38715.69;5059726;28;20036;-72
2024/01/26 07:32:49;;;;;;;12.55;5.43;;;;;;;-146.27;99.37;38668.03;5055122;28;20021;-72
2024/01/26 07:35:15;;;;;;;10.95;5.18;;;;;;;-146.27;99.63;38723.66;5058311;28;20666;-72
2024/01/26 07:37:40;;;;;;;22.48;4.97;;;;;;;-146.27;98.81;38675.97;5069720;28;20467;-72
2024/01/26 07:40:08;;;;;;;18.20;4.88;;;;;;;-146.27;99.51;38783.25;5077855;28;20023;-71
2024/01/26 07:42:34;;;;;;;10.32;4.15;;;;;;;-146.27;98.80;38852.78;5068966;28;20020;-72
2024/01/26 07:45:00;;;;;;;16.65;4.50;;;;;;;-146.27;98.95;38763.38;5073601;28;20048;-71
2024/01/26 07:47:26;;;;;;;13.45;4.22;;;;;;;-146.27;97.64;38795.19;5090028;28;20125;-71
2024/01/26 07:49:51;;;;;;;16.20;4.53;;;;;;;-146.27;97.46;38838.88;5089976;28;20020;-71
2024/01/26 07:52:16;;;;;;;13.27;3.67;;;;;;;-146.27;97.77;38914.41;5081812;28;20024;-71
2024/01/26 07:54:42;;;;;;;21.23;4.47;;;;;;;-146.27;98.21;38803.13;5069639;28;20400;-71
2024/01/26 07:57:08;;;;;;;15.00;3.95;;;;;;;-146.27;98.41;38942.22;5068147;28;20032;-71
2024/01/26 07:59:33;;;;;;;21.05;5.18;;;;;;;-146.27;97.44;38928.31;5069672;28;20025;-71
2024/01/26 08:01:58;;;;;;;21.02;4.95;;;;;;;-146.27;98.49;38966.06;5069700;28;20024;-70
2024/01/26 08:04:24;;;;;;;15.85;3.67;;;;;;;-146.27;98.01;38918.38;5069680;28;20393;-72
2024/01/26 08:06:49;;;;;;;19.15;4.22;;;;;;;-146.27;97.70;38991.88;5072473;28;20499;-71
2024/01/26 08:09:14;;;;;;;18.38;4.20;;;;;;;-146.27;98.18;39097.19;5089833;28;20476;-71
2024/01/26 08:11:40;;;;;;;17.52;4.18;;;;;;;-146.27;98.47;39025.66;5090006;28;20556;-71
2024/01/26 08:14:05;;;;;;;15.80;3.08;;;;;;;-146.27;98.39;39013.75;5072507;28;20029;-71
2024/01/26 08:16:31;;;;;;;19.83;3.13;;;;;;;-146.27;99.38;39097.19;5069619;28;20052;-71
2024/01/26 08:18:56;;;;;;;23.58;3.67;;;;;;;-146.27;99.27;39013.75;5069510;28;20381;-72
2024/01/26 08:21:22;;;;;;;17.63;4.20;;;;;;;-146.27;99.19;39089.25;5069609;28;20056;-71
2024/01/26 08:23:47;;;;;;;22.65;3.30;;;;;;;-146.27;98.55;39053.47;5067443;28;20020;-71
2024/01/26 08:26:14;;;;;;;20.38;4.03;;;;;;;-146.27;99.40;39136.94;5068340;28;20017;-72
2024/01/26 08:28:39;;;;;;;22.60;3.70;;;;;;;-146.27;99.24;39150.84;5069364;28;20462;-71
2024/01/26 08:31:05;;;;;;;23.38;4.53;;;;;;;-146.27;99.75;39140.91;5069388;28;20032;-72
2024/01/26 08:33:31;;;;;;;17.48;3.20;;;;;;;-146.27;99.72;39291.94;5075103;28;20024;-71
2024/01/26 08:35:56;;;;;;;21.17;2.88;;;;;;;-146.27;98.19;39347.56;5080415;28;20086;-71
2024/01/26 08:38:22;;;;;;;14.80;2.30;;;;;;;-146.27;97.45;39438.97;5067053;28;20042;-72
2024/01/26 08:40:47;;;;;;;14.20;2.28;;;;;;;-146.27;96.88;39512.50;5067338;28;20501;-72
2024/01/26 08:43:12;;;;;;;23.85;2.90;;;;;;;-146.27;96.28;39514.50;5069280;28;20028;-71
2024/01/26 08:45:38;;;;;;;29.42;4.68;;;;;;;-146.27;96.61;39566.16;5069937;28;20026;-72
2024/01/26 08:48:04;;;;;;;17.00;3.08;;;;;;;-146.27;95.88;39772.84;5072988;28;20104;-70
2024/01/26 08:50:29;;;;;;;24.05;3.30;;;;;;;-146.27;95.50;39673.47;5072900;28;20031;-71
2024/01/26 08:52:54;;;;;;;14.95;3.22;;;;;;;-146.27;95.19;39828.50;5072844;28;20443;-71
2024/01/26 08:55:19;;;;;;;26.13;4.28;;;;;;;-146.27;94.78;39917.94;5070339;28;20496;-71
2024/01/26 08:57:45;;;;;;;22.70;3.90;;;;;;;-146.27;93.81;40035.19;5073223;28;20111;-71
2024/01/26 09:00:12;;;;;;;23.55;2.80;;;;;;;-146.27;93.57;40233.94;5072620;28;20530;-72
2024/01/26 09:02:38;;;;;;;17.73;2.00;;;;;;;-146.27;93.21;40442.66;5071678;28;20025;-73
2024/01/26 09:05:05;;;;;;;8.80;1.73;;;;;;;-146.27;92.79;40506.25;5074213;28;20035;-71
2024/01/26 09:07:30;;;;;;;15.30;1.60;;;;;;;-146.27;90.44;40862.09;5072679;28;20051;-72
2024/01/26 09:09:56;;;;;;;7.00;1.15;;;;;;;-146.27;90.02;41096.66;5069521;28;20059;-71
2024/01/26 09:12:21;;;;;;;8.13;1.30;;;;;;;-146.27;89.96;41060.88;5072343;28;20036;-71
2024/01/26 09:14:46;;;;;;;15.40;2.67;;;;;;;-146.27;91.70;41013.16;5072017;28;20027;-72
2024/01/26 09:17:12;;;;;;;10.70;1.80;;;;;;;-146.27;91.98;40939.63;5071096;28;20032;-72
2024/01/26 09:19:37;;;;;;;9.15;1.35;;;;;;;-146.27;91.28;41088.72;5072302;28;20111;-72
2024/01/26 09:22:03;;;;;;;20.20;2.72;;;;;;;-146.27;89.58;41335.25;5072261;28;20111;-73
2024/01/26 09:24:28;;;;;;;11.10;2.20;;;;;;;-146.27;89.01;41299.47;5070763;28;20041;-73
2024/01/26 09:26:55;;;;;;;17.60;2.85;;;;;;;-146.27;87.79;41544.00;5069962;28;20028;-72
2024/01/26 09:29:21;;;;;;;20.08;2.92;;;;;;;-146.27;84.83;41919.81;5071051;28;20124;-72
2024/01/26 09:31:46;;;;;;;12.45;1.45;;;;;;;-146.27;81.37;42484.56;5072254;28;20143;-72
2024/01/26 09:34:11;;;;;;;10.18;1.30;;;;;;;-146.27;79.56;42776.94;5083073;28;20476;-71
2024/01/26 09:36:37;;;;;;;10.77;1.45;;;;;;;-146.27;79.57;42860.47;5088007;28;20449;-71
2024/01/26 09:39:02;;;;;;;11.65;1.83;;;;;;;-146.27;79.50;42918.16;5070039;28;20479;-71
2024/01/26 09:41:28;;;;;;;10.32;1.25;;;;;;;-146.27;78.77;43117.06;5070478;28;20024;-71
2024/01/26 09:43:53;;;;;;;12.93;1.38;;;;;;;-146.27;78.85;43465.16;5067614;28;20146;-71
2024/01/26 09:46:20;;;;;;;6.90;1.40;;;;;;;-146.27;78.16;43566.59;5071295;28;20028;-71
2024/01/26 09:48:52;;;;;;;8.63;1.05;;;;;;;-146.27;77.45;43735.69;5071387;28;20028;-71
2024/01/26 09:51:17;;;;;;;6.35;1.15;;;;;;;-146.27;76.92;43976.41;5060630;28;20029;-71
2024/01/26 09:53:43;;;;;;;13.68;1.35;;;;;;;-146.27;75.07;44163.44;5071590;28;20028;-71
2024/01/26 09:56:09;;;;;;;10.13;1.50;;;;;;;-146.27;73.69;44306.69;5059479;28;20028;-70
2024/01/26 09:58:34;;;;;;;7.80;1.30;;;;;;;-146.27;73.73;44342.50;5068289;28;20028;-72
2024/01/26 10:01:00;;;;;;;9.18;1.40;;;;;;;-146.27;73.67;44352.47;5069724;28;20111;-72
2024/01/26 10:03:27;;;;;;;11.95;1.77;;;;;;;-146.27;73.85;44338.53;5065542;28;20119;-71
2024/01/26 10:05:53;;;;;;;11.20;1.52;;;;;;;-146.27;72.41;44501.69;5065522;28;20698;-71
2024/01/26 10:08:18;;;;;;;7.03;1.80;;;;;;;-146.27;71.77;44633.00;5069883;28;20085;-72
2024/01/26 10:10:44;;;;;;;7.45;2.08;;;;;;;-146.27;71.11;44609.13;5069728;28;20050;-70
2024/01/26 10:13:10;;;;;;;13.15;1.83;;;;;;;-146.27;70.21;44680.78;5066231;28;20512;-72
2024/01/26 10:15:37;;;;;;;7.90;1.70;;;;;;;-146.27;69.45;44778.28;5067582;28;20024;-70
2024/01/26 10:18:04;;;;;;;9.93;1.77;;;;;;;-146.27;68.96;44869.81;5063693;28;20456;-70
2024/01/26 10:20:29;;;;;;;7.47;1.60;;;;;;;-146.27;66.69;45092.69;5063157;28;20029;-71
2024/01/26 10:22:55;;;;;;;7.28;1.25;;;;;;;-146.27;67.21;45182.25;5052823;28;20024;-70
2024/01/26 10:25:20;;;;;;;11.52;1.92;;;;;;;-146.27;67.00;45120.56;5064505;28;20392;-70
2024/01/26 10:27:46;;;;;;;7.90;1.58;;;;;;;-146.27;66.24;45210.09;5069825;28;20588;-70
2024/01/26 10:30:13;;;;;;;12.27;1.80;;;;;;;-146.27;65.28;45271.81;5055262;28;20103;-71
2024/01/26 10:32:39;;;;;;;17.70;1.88;;;;;;;-146.27;65.48;45249.91;5061796;28;20070;-72
2024/01/26 10:35:07;;;;;;;9.82;2.75;;;;;;;-146.27;63.68;45377.28;5062285;28;20021;-69
2024/01/26 10:37:34;;;;;;;14.40;2.70;;;;;;;-146.27;63.59;45315.59;5054342;28;20476;-71
2024/01/26 10:40:01;;;;;;;9.27;1.40;;;;;;;-146.27;61.20;45462.88;5069450;28;20068;-71
2024/01/26 10:42:31;;;;;;;11.38;2.53;;;;;;;-146.27;62.25;45504.66;5069577;28;20090;-69
2024/01/26 10:45:01;;;;;;;16.50;2.97;;;;;;;-146.27;62.93;45435.00;5065297;28;20021;-71
2024/01/26 10:47:27;;;;;;;18.65;2.70;;;;;;;-146.27;61.33;45460.88;5070287;28;20032;-70
2024/01/26 10:49:57;;;;;;;15.38;1.88;;;;;;;-146.27;61.30;45544.47;5066487;28;20153;-70
2024/01/26 10:52:23;;;;;;;10.35;1.80;;;;;;;-146.27;60.44;45570.34;5063813;28;20098;-69
2024/01/26 10:54:52;;;;;;;14.32;1.92;;;;;;;-146.27;59.80;45632.03;5059757;28;20020;-70
2024/01/26 10:57:19;;;;;;;12.13;2.60;;;;;;;-146.27;59.52;45604.19;5069901;28;20032;-70